createdAt,value
2023-01-31T00:01:51.067Z,99233.16
2023-01-31T00:04:18.921Z,99243.72
2023-01-31T00:06:50.936Z,99248.75
2023-01-31T00:09:19.491Z,99246.44
2023-01-31T00:11:48.741Z,99248.22
2023-01-31T00:14:19.663Z,99247.44
2023-01-31T00:16:48.256Z,99259.88
2023-01-31T00:19:16.240Z,99274.84
2023-01-31T00:21:45.829Z,99286.81
2023-01-31T00:24:14.192Z,99287.19
2023-01-31T00:26:42.401Z,99281.16
2023-01-31T00:29:11.977Z,99296.75
2023-01-31T00:31:40.316Z,99281.16
2023-01-31T00:34:08.909Z,99293.59
2023-01-31T00:36:37.662Z,99291.03
2023-01-31T00:39:07.392Z,99283.56
2023-01-31T00:41:37.463Z,99303.31
2023-01-31T00:44:06.728Z,99314.84
2023-01-31T00:46:36.759Z,99322.34
2023-01-31T00:49:05.605Z,99328.13
2023-01-31T00:51:33.786Z,99333.00
2023-01-31T00:54:01.707Z,99340.81
2023-01-31T00:56:30.155Z,99328.13
2023-01-31T00:58:58.646Z,99327.06
2023-01-31T01:01:28.923Z,99320.13
2023-01-31T01:03:59.255Z,99324.13
2023-01-31T01:06:28.005Z,99336.66
2023-01-31T01:08:57.412Z,99328.31
2023-01-31T01:11:28.104Z,99321.50
2023-01-31T01:13:57.104Z,99319.56
2023-01-31T01:16:27.134Z,99326.38
2023-01-31T01:18:56.026Z,99325.66
2023-01-31T01:21:28.190Z,99352.41
2023-01-31T01:23:58.820Z,99335.47
2023-01-31T01:26:28.522Z,99337.31
2023-01-31T01:28:58.383Z,99346.03
2023-01-31T01:31:30.628Z,99341.56
2023-01-31T01:34:00.538Z,99374.47
2023-01-31T01:36:30.242Z,99364.44
2023-01-31T01:38:58.288Z,99365.28
2023-01-31T01:41:26.502Z,99361.88
2023-01-31T01:43:56.621Z,99346.03
2023-01-31T01:46:29.304Z,99358.47
2023-01-31T01:49:01.926Z,99358.56
2023-01-31T01:51:33.708Z,99354.38
2023-01-31T01:54:06.051Z,99361.03
2023-01-31T01:56:40.227Z,99359.25
2023-01-31T01:59:10.965Z,99356.78
2023-01-31T02:01:40.457Z,99365.81
2023-01-31T02:04:15.110Z,99357.41
2023-01-31T02:06:45.936Z,99353.25
2023-01-31T02:09:26.761Z,99362.28
2023-01-31T02:11:54.652Z,99363.66
2023-01-31T02:14:22.706Z,99362.97
2023-01-31T02:16:50.729Z,99370.31
2023-01-31T02:19:30.291Z,99378.50
2023-01-31T02:22:15.647Z,99366.44
2023-01-31T02:25:38.381Z,99373.41
2023-01-31T02:28:42.547Z,99381.41
2023-01-31T02:31:43.822Z,99380.19
2023-01-31T02:34:18.984Z,99384.66
2023-01-31T02:37:02.388Z,99391.00
2023-01-31T02:39:37.489Z,99391.59
2023-01-31T02:42:15.171Z,99394.75
2023-01-31T02:45:01.127Z,99387.84
2023-01-31T02:47:41.993Z,99390.16
2023-01-31T02:50:20.685Z,99387.84
2023-01-31T02:52:57.457Z,99391.44
2023-01-31T02:55:48.605Z,99390.19
2023-01-31T02:58:20.981Z,99409.59
2023-01-31T03:00:50.766Z,99410.59
2023-01-31T03:03:23.453Z,99409.06
2023-01-31T03:06:59.689Z,99410.59
2023-01-31T03:09:47.206Z,99419.81
2023-01-31T03:12:29.324Z,99415.56
2023-01-31T03:15:10.871Z,99411.63
2023-01-31T03:17:57.353Z,99422.50
2023-01-31T03:20:36.383Z,99453.84
2023-01-31T03:23:12.744Z,99445.50
2023-01-31T03:25:41.257Z,99447.19
2023-01-31T03:28:15.504Z,99442.97
2023-01-31T03:30:51.050Z,99452.63
2023-01-31T03:33:24.934Z,99459.78
2023-01-31T03:35:59.082Z,99449.94
2023-01-31T03:38:35.239Z,99464.66
2023-01-31T03:41:09.292Z,99458.88
2023-01-31T03:43:42.574Z,99448.56
2023-01-31T03:46:16.910Z,99456.38
2023-01-31T03:48:50.824Z,99441.50
2023-01-31T03:51:23.502Z,99462.50
2023-01-31T03:53:55.295Z,99466.41
2023-01-31T03:56:29.217Z,99466.41
2023-01-31T03:59:00.865Z,99453.66
2023-01-31T04:01:32.790Z,99456.63
2023-01-31T04:04:06.529Z,99446.50
2023-01-31T04:06:35.614Z,99444.78
2023-01-31T04:09:05.422Z,99434.88
2023-01-31T04:11:38.360Z,99436.50
2023-01-31T04:14:06.781Z,99445.59
2023-01-31T04:16:34.820Z,99441.56
2023-01-31T04:19:02.787Z,99447.59
2023-01-31T04:21:30.769Z,99441.06
2023-01-31T04:23:58.753Z,99457.06
2023-01-31T04:26:28.085Z,99463.53
2023-01-31T04:28:55.938Z,99467.78
2023-01-31T04:31:23.972Z,99480.41
2023-01-31T04:33:51.814Z,99488.88
2023-01-31T04:36:19.715Z,99489.22
2023-01-31T04:38:47.615Z,99489.41
2023-01-31T04:41:15.467Z,99492.81
2023-01-31T04:43:44.839Z,99495.41
2023-01-31T04:46:12.735Z,99483.16
2023-01-31T04:48:41.405Z,99492.44
2023-01-31T04:51:09.769Z,99508.09
2023-01-31T04:53:37.770Z,99509.81
2023-01-31T04:56:06.822Z,99513.22
2023-01-31T04:58:34.726Z,99501.81
2023-01-31T05:01:04.123Z,99491.84
2023-01-31T05:03:32.093Z,99501.81
2023-01-31T05:06:00.236Z,99499.25
2023-01-31T05:08:29.443Z,99508.44
2023-01-31T05:11:03.012Z,99502.81
2023-01-31T05:13:32.762Z,99510.16
2023-01-31T05:16:01.049Z,99507.78
2023-01-31T05:18:30.285Z,99520.81
2023-01-31T05:20:58.117Z,99505.56
2023-01-31T05:23:25.986Z,99532.09
2023-01-31T05:25:53.863Z,99529.13
2023-01-31T05:28:21.845Z,99534.31
2023-01-31T05:30:49.811Z,99544.34
2023-01-31T05:33:19.518Z,99557.63
2023-01-31T05:35:48.937Z,99563.50
2023-01-31T05:38:16.973Z,99566.66
2023-01-31T05:40:45.395Z,99576.56
2023-01-31T05:43:13.267Z,99574.00
2023-01-31T05:45:41.191Z,99583.56
2023-01-31T05:48:09.128Z,99580.16
2023-01-31T05:50:36.969Z,99588.16
2023-01-31T05:53:12.119Z,99591.22
2023-01-31T05:55:39.958Z,99594.31
2023-01-31T05:58:07.816Z,99590.91
2023-01-31T06:00:35.640Z,99596.44
2023-01-31T06:03:03.542Z,99599.59
2023-01-31T06:05:32.063Z,99601.19
2023-01-31T06:08:00.331Z,99602.91
2023-01-31T06:10:29.662Z,99606.22
2023-01-31T06:12:57.583Z,99611.44
2023-01-31T06:15:25.523Z,99618.00
2023-01-31T06:17:53.432Z,99608.09
2023-01-31T06:20:23.761Z,99647.91
2023-01-31T06:22:51.590Z,99615.59
2023-01-31T06:25:19.746Z,99596.25
2023-01-31T06:27:49.095Z,99613.63
2023-01-31T06:30:17.278Z,99612.19
2023-01-31T06:32:45.172Z,99640.91
2023-01-31T06:35:13.028Z,99612.09
2023-01-31T06:37:40.893Z,99619.50
2023-01-31T06:40:09.507Z,99641.91
2023-01-31T06:42:37.446Z,99637.25
2023-01-31T06:45:07.737Z,99647.81
2023-01-31T06:47:36.059Z,99652.91
2023-01-31T06:50:04.156Z,99647.22
2023-01-31T06:52:31.995Z,99657.50
2023-01-31T06:54:59.835Z,99656.75
2023-01-31T06:57:27.714Z,99650.94
2023-01-31T06:59:55.532Z,99665.78
2023-01-31T07:02:24.791Z,99686.47
2023-01-31T07:04:52.969Z,99696.47
2023-01-31T07:07:20.849Z,99664.00
2023-01-31T07:09:48.681Z,99707.44
2023-01-31T07:12:16.492Z,99679.97
2023-01-31T07:14:44.365Z,99691.16
2023-01-31T07:17:12.259Z,99672.69
2023-01-31T07:19:41.902Z,99690.09
2023-01-31T07:22:09.853Z,99690.72
2023-01-31T07:24:37.784Z,99686.63
2023-01-31T07:27:05.748Z,99685.59
2023-01-31T07:29:33.753Z,99681.19
2023-01-31T07:32:01.748Z,99694.31
2023-01-31T07:34:30.138Z,99704.19
2023-01-31T07:37:01.244Z,99711.09
2023-01-31T07:39:30.082Z,99702.84
2023-01-31T07:41:58.170Z,99708.47
2023-01-31T07:44:26.201Z,99719.47
2023-01-31T07:46:56.393Z,99705.06
2023-01-31T07:49:24.220Z,99723.22
2023-01-31T07:51:52.053Z,99735.50
2023-01-31T07:54:21.347Z,99727.31
2023-01-31T07:56:49.207Z,99736.25
2023-01-31T07:59:17.672Z,99737.03
2023-01-31T08:02:02.952Z,99741.22
2023-01-31T08:04:30.951Z,99747.84
2023-01-31T08:06:59.740Z,99747.09
2023-01-31T08:09:29.540Z,99756.41
2023-01-31T08:11:57.486Z,99752.47
2023-01-31T08:14:26.245Z,99739.50
2023-01-31T08:16:54.695Z,99762.34
2023-01-31T08:19:23.008Z,99757.25
2023-01-31T08:21:51.108Z,99763.06
2023-01-31T08:24:19.142Z,99753.22
2023-01-31T08:26:48.452Z,99749.97
2023-01-31T08:29:16.631Z,99762.53
2023-01-31T08:31:44.784Z,99761.94
2023-01-31T08:34:13.127Z,99736.94
2023-01-31T08:36:41.034Z,99767.13
2023-01-31T08:39:09.169Z,99786.56
2023-01-31T08:41:38.582Z,99777.88
2023-01-31T08:44:08.098Z,99767.63
2023-01-31T08:46:37.698Z,99771.03
2023-01-31T08:49:07.624Z,99779.91
2023-01-31T08:51:36.026Z,99782.47
2023-01-31T08:54:05.029Z,99790.75
2023-01-31T08:56:33.863Z,99803.13
2023-01-31T08:59:01.797Z,99813.59
2023-01-31T09:01:32.695Z,99812.50
2023-01-31T09:04:00.646Z,99804.13
2023-01-31T09:06:30.044Z,99834.59
2023-01-31T09:08:59.009Z,99795.09
2023-01-31T09:11:29.039Z,99789.38
2023-01-31T09:13:57.342Z,99811.03
2023-01-31T09:16:25.322Z,99799.63
2023-01-31T09:18:56.061Z,99817.97
2023-01-31T09:21:24.936Z,99797.66
2023-01-31T09:23:57.471Z,99810.84
2023-01-31T09:26:25.794Z,99829.19
2023-01-31T09:28:53.631Z,99848.50
2023-01-31T09:31:22.600Z,99853.63
2023-01-31T09:33:50.738Z,99844.56
2023-01-31T09:36:24.887Z,99843.03
2023-01-31T09:38:56.442Z,99867.06
2023-01-31T09:41:31.283Z,99849.91
2023-01-31T09:44:03.445Z,99866.66
2023-01-31T09:46:37.310Z,99851.72
2023-01-31T09:49:10.439Z,99854.63
2023-01-31T09:51:40.772Z,99855.63
2023-01-31T09:54:18.974Z,99866.53
2023-01-31T09:56:55.451Z,99861.66
2023-01-31T09:59:26.413Z,99879.94
2023-01-31T10:02:04.255Z,99859.63
2023-01-31T10:04:58.858Z,99858.84
2023-01-31T10:07:33.249Z,99860.78
2023-01-31T10:10:06.570Z,99857.59
2023-01-31T10:12:41.891Z,99851.13
2023-01-31T10:15:19.039Z,99872.63
2023-01-31T10:17:51.872Z,99872.03
2023-01-31T10:20:23.817Z,99864.59
2023-01-31T10:22:59.473Z,99863.22
2023-01-31T10:25:29.362Z,99860.28
2023-01-31T10:28:02.343Z,99872.00
2023-01-31T10:30:41.382Z,99857.84
2023-01-31T10:33:18.499Z,99862.97
2023-01-31T10:35:48.132Z,99883.09
2023-01-31T10:38:23.666Z,99852.63
2023-01-31T10:40:58.784Z,99863.88
2023-01-31T10:43:34.597Z,99862.56
2023-01-31T10:46:03.316Z,99865.91
2023-01-31T10:48:31.499Z,99878.84
2023-01-31T10:51:09.139Z,99861.56
2023-01-31T10:53:52.766Z,99864.97
2023-01-31T10:56:29.353Z,99860.59
2023-01-31T10:58:59.464Z,99864.72
2023-01-31T11:01:27.520Z,99853.63
2023-01-31T11:03:57.718Z,99869.88
2023-01-31T11:06:25.981Z,99869.56
2023-01-31T11:08:58.533Z,99870.94
2023-01-31T11:11:27.983Z,99868.16
2023-01-31T11:14:00.749Z,99864.69
2023-01-31T11:16:32.048Z,99874.41
2023-01-31T11:19:02.568Z,99868.78
2023-01-31T11:21:32.908Z,99871.25
2023-01-31T11:24:05.966Z,99868.78
2023-01-31T11:26:37.755Z,99872.19
2023-01-31T11:29:11.849Z,99864.44
2023-01-31T11:31:45.557Z,99854.91
2023-01-31T11:34:22.314Z,99848.97
2023-01-31T11:36:50.251Z,99847.28
2023-01-31T11:39:29.452Z,99839.94
2023-01-31T11:41:57.272Z,99834.34
2023-01-31T11:44:25.312Z,99839.03
2023-01-31T11:46:55.350Z,99836.91
2023-01-31T11:49:29.535Z,99824.97
2023-01-31T11:51:59.072Z,99827.69
2023-01-31T11:54:31.628Z,99820.16
2023-01-31T11:57:00.918Z,99827.91
2023-01-31T11:59:31.616Z,99830.72
2023-01-31T12:02:02.073Z,99858.78
2023-01-31T12:04:33.790Z,99828.63
2023-01-31T12:07:04.961Z,99841.00
2023-01-31T12:09:43.863Z,99845.75
2023-01-31T12:12:24.913Z,99831.94
2023-01-31T12:14:56.210Z,99835.72
2023-01-31T12:17:24.292Z,99827.59
2023-01-31T12:20:21.330Z,99823.41
2023-01-31T12:23:03.577Z,99830.94
2023-01-31T12:25:56.697Z,99832.78
2023-01-31T12:28:37.655Z,99828.69
2023-01-31T12:31:20.637Z,99834.59
2023-01-31T12:34:03.729Z,99840.56
2023-01-31T12:36:48.325Z,99833.19
2023-01-31T12:39:32.969Z,99841.59
2023-01-31T12:42:24.245Z,99814.13
2023-01-31T12:45:06.542Z,99831.13
2023-01-31T12:48:13.522Z,99806.88
2023-01-31T12:50:49.027Z,99807.97
2023-01-31T12:53:42.154Z,99800.66
2023-01-31T12:56:27.402Z,99830.09
2023-01-31T12:59:15.417Z,99820.28
2023-01-31T13:01:51.530Z,99827.28
2023-01-31T13:04:36.864Z,99812.56
2023-01-31T13:07:09.054Z,99810.75
2023-01-31T13:09:38.758Z,99819.72
2023-01-31T13:12:10.604Z,99809.50
2023-01-31T13:14:44.126Z,99825.06
2023-01-31T13:17:15.641Z,99823.44
2023-01-31T13:19:51.253Z,99822.81
2023-01-31T13:22:23.851Z,99828.06
2023-01-31T13:24:57.120Z,99817.59
2023-01-31T13:27:30.124Z,99813.19
2023-01-31T13:30:04.911Z,99800.16
2023-01-31T13:32:39.455Z,99822.78
2023-01-31T13:35:17.833Z,99810.00
2023-01-31T13:37:49.309Z,99818.03
2023-01-31T13:40:20.834Z,99818.41
2023-01-31T13:42:49.046Z,99809.88
2023-01-31T13:45:25.228Z,99817.22
2023-01-31T13:47:59.487Z,99819.78
2023-01-31T13:50:36.595Z,99822.84
2023-01-31T13:53:06.350Z,99813.25
2023-01-31T13:55:39.213Z,99813.00
2023-01-31T13:58:10.192Z,99819.03
2023-01-31T14:00:42.894Z,99819.13
2023-01-31T14:03:13.209Z,99818.31
2023-01-31T14:06:08.042Z,99814.19
2023-01-31T14:08:59.103Z,99809.06
2023-01-31T14:11:34.833Z,99810.41
2023-01-31T14:14:20.184Z,99808.53
2023-01-31T14:16:52.459Z,99811.78
2023-01-31T14:20:03.263Z,99806.84
2023-01-31T14:22:34.910Z,99802.81
2023-01-31T14:25:05.965Z,99805.31
2023-01-31T14:27:38.130Z,99811.03
2023-01-31T14:30:27.292Z,99802.56
2023-01-31T14:33:15.460Z,99797.78
2023-01-31T14:36:19.837Z,99800.34
2023-01-31T14:39:12.199Z,99791.31
2023-01-31T14:42:00.602Z,99799.59
2023-01-31T14:44:42.918Z,99801.13
2023-01-31T14:47:27.986Z,99790.53
2023-01-31T14:50:18.800Z,99783.97
2023-01-31T14:53:06.514Z,99792.41
2023-01-31T14:55:45.959Z,99778.41
2023-01-31T14:58:19.813Z,99780.88
2023-01-31T15:00:54.342Z,99775.94
2023-01-31T15:03:26.765Z,99764.50
2023-01-31T15:06:07.164Z,99753.50
2023-01-31T15:08:40.191Z,99756.91
2023-01-31T15:11:14.078Z,99762.09
2023-01-31T15:13:48.486Z,99744.34
2023-01-31T15:16:20.890Z,99765.63
2023-01-31T15:18:51.246Z,99767.63
2023-01-31T15:21:26.455Z,99766.94
2023-01-31T15:23:56.233Z,99762.84
2023-01-31T15:26:28.431Z,99760.81
2023-01-31T15:28:57.763Z,99765.94
2023-01-31T15:31:32.156Z,99770.72
2023-01-31T15:34:04.922Z,99767.31
2023-01-31T15:36:38.319Z,99765.63
2023-01-31T15:39:21.182Z,99750.97
2023-01-31T15:41:49.198Z,99770.41
2023-01-31T15:44:20.015Z,99772.91
2023-01-31T15:46:49.271Z,99776.91
2023-01-31T15:49:38.187Z,99771.97
2023-01-31T15:52:15.374Z,99769.47
2023-01-31T15:54:56.439Z,99771.09
2023-01-31T15:57:27.299Z,99780.16
2023-01-31T15:59:56.037Z,99771.78
2023-01-31T16:02:28.749Z,99772.66
2023-01-31T16:04:57.868Z,99768.38
2023-01-31T16:07:31.718Z,99754.75
2023-01-31T16:10:02.845Z,99770.84
2023-01-31T16:12:32.782Z,99774.09
2023-01-31T16:15:05.637Z,99774.09
2023-01-31T16:17:33.891Z,99769.16
2023-01-31T16:20:01.730Z,99755.91
2023-01-31T16:22:32.645Z,99751.81
2023-01-31T16:25:02.460Z,99762.75
2023-01-31T16:27:36.925Z,99761.88
2023-01-31T16:30:05.648Z,99764.44
2023-01-31T16:32:37.709Z,99769.41
2023-01-31T16:35:08.001Z,99766.84
2023-01-31T16:37:38.920Z,99768.38
2023-01-31T16:40:09.706Z,99771.63
2023-01-31T16:42:39.256Z,99770.00
2023-01-31T16:45:29.444Z,99776.56
2023-01-31T16:48:16.875Z,99769.16
2023-01-31T16:50:44.841Z,99774.03
2023-01-31T16:53:26.330Z,99783.91
2023-01-31T16:56:23.965Z,99778.13
2023-01-31T16:58:55.092Z,99780.59
2023-01-31T17:01:26.782Z,99778.13
2023-01-31T17:04:17.807Z,99774.09
2023-01-31T17:06:51.186Z,99781.53
2023-01-31T17:09:23.477Z,99783.25
2023-01-31T17:11:51.628Z,99766.50
2023-01-31T17:14:19.518Z,99773.34
2023-01-31T17:16:48.059Z,99770.09
2023-01-31T17:19:16.174Z,99769.16
2023-01-31T17:21:49.947Z,99751.34
2023-01-31T17:24:19.927Z,99764.03
2023-01-31T17:26:50.577Z,99772.66
2023-01-31T17:29:19.384Z,99773.50
2023-01-31T17:31:47.256Z,99768.47
2023-01-31T17:34:16.283Z,99768.53
2023-01-31T17:36:44.888Z,99767.69
2023-01-31T17:39:12.922Z,99769.72
2023-01-31T17:41:41.668Z,99768.88
2023-01-31T17:44:14.683Z,99761.59
2023-01-31T17:46:43.400Z,99751.84
2023-01-31T17:49:11.867Z,99757.56
2023-01-31T17:51:40.904Z,99761.38
2023-01-31T17:54:08.904Z,99765.09
2023-01-31T17:56:36.798Z,99764.22
2023-01-31T17:59:05.818Z,99760.72
2023-01-31T18:01:36.216Z,99763.63
2023-01-31T18:04:05.326Z,99767.81
2023-01-31T18:06:33.397Z,99789.16
2023-01-31T18:09:06.993Z,99776.69
2023-01-31T18:11:34.933Z,99788.81
2023-01-31T18:14:04.039Z,99773.00
2023-01-31T18:16:32.467Z,99783.28
2023-01-31T18:19:01.857Z,99772.34
2023-01-31T18:21:29.836Z,99778.25
2023-01-31T18:23:58.930Z,99771.41
2023-01-31T18:26:26.930Z,99772.94
2023-01-31T18:28:57.271Z,99767.78
2023-01-31T18:31:25.329Z,99771.88
2023-01-31T18:33:53.236Z,99769.31
2023-01-31T18:36:23.166Z,99766.66
2023-01-31T18:38:52.024Z,99769.81
2023-01-31T18:41:21.615Z,99759.84
2023-01-31T18:43:50.527Z,99750.63
2023-01-31T18:46:18.549Z,99755.66
2023-01-31T18:48:46.815Z,99748.94
2023-01-31T18:51:16.251Z,99748.16
2023-01-31T18:53:48.677Z,99745.69
2023-01-31T18:56:18.485Z,99739.78
2023-01-31T18:58:49.350Z,99746.44
2023-01-31T19:01:19.350Z,99733.91
2023-01-31T19:03:49.981Z,99734.69
2023-01-31T19:06:20.685Z,99730.59
2023-01-31T19:08:51.017Z,99715.19
2023-01-31T19:11:21.309Z,99730.66
2023-01-31T19:13:49.738Z,99734.00
2023-01-31T19:16:20.502Z,99727.03
2023-01-31T19:18:49.105Z,99722.75
2023-01-31T19:21:18.073Z,99726.00
2023-01-31T19:23:46.815Z,99724.47
2023-01-31T19:26:18.161Z,99715.34
2023-01-31T19:28:48.347Z,99716.13
2023-01-31T19:31:18.833Z,99717.66
2023-01-31T19:33:50.223Z,99715.94
2023-01-31T19:36:20.434Z,99709.97
2023-01-31T19:38:48.415Z,99719.19
2023-01-31T19:41:19.426Z,99720.03
2023-01-31T19:43:49.099Z,99719.00
2023-01-31T19:46:17.953Z,99718.94
2023-01-31T19:48:46.196Z,99717.13
2023-01-31T19:51:15.923Z,99708.81
2023-01-31T19:53:45.290Z,99718.53
2023-01-31T19:56:14.090Z,99711.69
2023-01-31T19:58:43.485Z,99710.84
2023-01-31T20:01:13.383Z,99704.28
2023-01-31T20:03:41.414Z,99699.94
2023-01-31T20:06:11.209Z,99693.97
2023-01-31T20:08:39.166Z,99692.78
2023-01-31T20:11:08.022Z,99676.09
2023-01-31T20:13:36.708Z,99687.31
2023-01-31T20:16:08.836Z,99688.84
2023-01-31T20:18:38.196Z,99686.31
2023-01-31T20:21:07.200Z,99683.78
2023-01-31T20:23:35.324Z,99683.59
2023-01-31T20:26:03.487Z,99683.59
2023-01-31T20:28:31.403Z,99681.88
2023-01-31T20:31:04.396Z,99679.25
2023-01-31T20:33:34.164Z,99676.09
2023-01-31T20:36:02.430Z,99680.19
2023-01-31T20:38:30.826Z,99676.84
2023-01-31T20:40:58.907Z,99671.84
2023-01-31T20:43:27.699Z,99669.28
2023-01-31T20:46:03.230Z,99672.41
2023-01-31T20:48:31.259Z,99659.72
2023-01-31T20:51:00.786Z,99662.53
2023-01-31T20:53:29.709Z,99674.13
2023-01-31T20:55:59.308Z,99679.94
2023-01-31T20:58:28.613Z,99677.38
2023-01-31T21:00:57.735Z,99678.47
2023-01-31T21:03:26.016Z,99677.13
2023-01-31T21:05:54.120Z,99688.72
2023-01-31T21:08:23.403Z,99683.78
2023-01-31T21:10:52.027Z,99692.94
2023-01-31T21:13:21.305Z,99676.59
2023-01-31T21:15:52.444Z,99665.16
2023-01-31T21:18:21.216Z,99672.50
2023-01-31T21:20:49.367Z,99655.66
2023-01-31T21:23:17.201Z,99657.34
2023-01-31T21:25:46.455Z,99660.59
2023-01-31T21:28:14.405Z,99653.75
2023-01-31T21:30:42.496Z,99679.34
2023-01-31T21:33:10.425Z,99655.56
2023-01-31T21:35:38.392Z,99650.69
2023-01-31T21:38:06.214Z,99655.78
2023-01-31T21:40:34.167Z,99672.19
2023-01-31T21:43:02.481Z,99676.41
2023-01-31T21:45:42.319Z,99674.13
2023-01-31T21:48:30.681Z,99669.44
2023-01-31T21:50:58.761Z,99664.56
2023-01-31T21:53:29.055Z,99669.59
2023-01-31T21:56:01.689Z,99667.91
2023-01-31T21:58:30.995Z,99685.56
2023-01-31T22:01:03.979Z,99665.78
2023-01-31T22:03:31.978Z,99669.94
2023-01-31T22:06:04.305Z,99667.38
2023-01-31T22:08:32.507Z,99661.50
2023-01-31T22:11:04.313Z,99659.03
2023-01-31T22:13:33.717Z,99661.59
2023-01-31T22:16:02.374Z,99665.78
2023-01-31T22:18:31.101Z,99642.50
2023-01-31T22:21:03.569Z,99649.31
2023-01-31T22:23:32.162Z,99657.31
2023-01-31T22:26:03.884Z,99644.28
2023-01-31T22:28:33.226Z,99630.38
2023-01-31T22:31:02.129Z,99618.94
2023-01-31T22:33:30.572Z,99633.94
2023-01-31T22:35:58.641Z,99644.00
2023-01-31T22:38:26.520Z,99618.59
2023-01-31T22:40:58.258Z,99644.50
2023-01-31T22:43:27.090Z,99640.31
2023-01-31T22:45:58.306Z,99659.47
2023-01-31T22:48:27.046Z,99639.59
2023-01-31T22:50:56.247Z,99637.13
2023-01-31T22:53:24.622Z,99628.28
2023-01-31T22:55:52.755Z,99638.19
2023-01-31T22:58:20.881Z,99627.84
2023-01-31T23:00:49.841Z,99613.00
2023-01-31T23:03:19.118Z,99608.22
2023-01-31T23:05:47.128Z,99624.78
2023-01-31T23:08:15.997Z,99628.19
2023-01-31T23:10:44.654Z,99624.94
2023-01-31T23:13:13.025Z,99632.53
2023-01-31T23:15:41.052Z,99633.41
2023-01-31T23:18:09.295Z,99633.41
2023-01-31T23:20:38.691Z,99624.38
2023-01-31T23:23:06.614Z,99606.84
2023-01-31T23:25:34.560Z,99614.63
2023-01-31T23:28:03.281Z,99599.88
2023-01-31T23:30:31.314Z,99602.34
2023-01-31T23:32:59.239Z,99590.81
2023-01-31T23:35:27.216Z,99579.28
2023-01-31T23:37:57.012Z,99579.28
2023-01-31T23:40:24.959Z,99584.41
2023-01-31T23:42:52.832Z,99591.06
2023-01-31T23:45:20.818Z,99592.00
2023-01-31T23:47:50.319Z,99584.47
2023-01-31T23:50:18.921Z,99571.25
2023-01-31T23:52:46.965Z,99574.66
2023-01-31T23:55:18.194Z,99567.31
2023-01-31T23:57:46.124Z,99583.88
